sensor_id;sensor_type;location;lat;lon;timestamp;P1;durP1;ratioP1;P2;durP2;ratioP2
12480;SDS011;6305;48.398;11.762;2023-04-25T00:00:08;7.90;;;4.93;;
12480;SDS011;6305;48.398;11.762;2023-04-25T00:02:39;6.75;;;5.10;;
12480;SDS011;6305;48.398;11.762;2023-04-25T00:05:07;8.00;;;5.25;;
12480;SDS011;6305;48.398;11.762;2023-04-25T00:07:34;8.20;;;4.95;;
12480;SDS011;6305;48.398;11.762;2023-04-25T00:10:02;7.18;;;4.82;;
12480;SDS011;6305;48.398;11.762;2023-04-25T00:12:30;6.55;;;4.55;;
12480;SDS011;6305;48.398;11.762;2023-04-25T00:14:58;6.78;;;4.82;;
12480;SDS011;6305;48.398;11.762;2023-04-25T00:17:25;8.82;;;4.78;;
12480;SDS011;6305;48.398;11.762;2023-04-25T00:19:53;6.13;;;4.45;;
12480;SDS011;6305;48.398;11.762;2023-04-25T00:22:21;6.60;;;4.15;;
12480;SDS011;6305;48.398;11.762;2023-04-25T00:24:48;6.35;;;4.20;;
12480;SDS011;6305;48.398;11.762;2023-04-25T00:27:15;5.82;;;4.10;;
12480;SDS011;6305;48.398;11.762;2023-04-25T00:29:43;5.68;;;3.80;;
12480;SDS011;6305;48.398;11.762;2023-04-25T00:32:11;5.80;;;4.18;;
12480;SDS011;6305;48.398;11.762;2023-04-25T00:34:38;5.93;;;4.22;;
12480;SDS011;6305;48.398;11.762;2023-04-25T00:37:05;6.65;;;4.90;;
12480;SDS011;6305;48.398;11.762;2023-04-25T00:39:32;7.43;;;4.07;;
12480;SDS011;6305;48.398;11.762;2023-04-25T00:41:59;4.80;;;3.80;;
12480;SDS011;6305;48.398;11.762;2023-04-25T00:44:27;5.03;;;4.38;;
12480;SDS011;6305;48.398;11.762;2023-04-25T00:46:57;4.75;;;3.83;;
12480;SDS011;6305;48.398;11.762;2023-04-25T00:49:24;5.93;;;4.25;;
12480;SDS011;6305;48.398;11.762;2023-04-25T00:51:51;5.82;;;3.90;;
12480;SDS011;6305;48.398;11.762;2023-04-25T00:54:18;4.53;;;3.88;;
12480;SDS011;6305;48.398;11.762;2023-04-25T00:56:45;5.10;;;3.80;;
12480;SDS011;6305;48.398;11.762;2023-04-25T00:59:12;6.32;;;4.20;;
12480;SDS011;6305;48.398;11.762;2023-04-25T01:01:41;6.15;;;3.80;;
12480;SDS011;6305;48.398;11.762;2023-04-25T01:04:10;4.70;;;3.60;;
12480;SDS011;6305;48.398;11.762;2023-04-25T01:06:37;4.10;;;3.67;;
12480;SDS011;6305;48.398;11.762;2023-04-25T01:09:04;6.22;;;3.97;;
12480;SDS011;6305;48.398;11.762;2023-04-25T01:11:32;6.07;;;3.80;;
12480;SDS011;6305;48.398;11.762;2023-04-25T01:13:59;4.10;;;3.67;;
12480;SDS011;6305;48.398;11.762;2023-04-25T01:16:27;5.68;;;3.60;;
12480;SDS011;6305;48.398;11.762;2023-04-25T01:18:55;7.10;;;4.00;;
12480;SDS011;6305;48.398;11.762;2023-04-25T01:21:24;5.50;;;3.25;;
12480;SDS011;6305;48.398;11.762;2023-04-25T01:23:53;5.13;;;3.63;;
12480;SDS011;6305;48.398;11.762;2023-04-25T01:26:21;4.50;;;3.60;;
12480;SDS011;6305;48.398;11.762;2023-04-25T01:28:49;5.80;;;3.60;;
12480;SDS011;6305;48.398;11.762;2023-04-25T01:31:16;4.85;;;3.30;;
12480;SDS011;6305;48.398;11.762;2023-04-25T01:33:44;5.68;;;3.83;;
12480;SDS011;6305;48.398;11.762;2023-04-25T01:36:12;5.07;;;3.70;;
12480;SDS011;6305;48.398;11.762;2023-04-25T01:38:42;5.45;;;4.05;;
12480;SDS011;6305;48.398;11.762;2023-04-25T01:41:11;4.75;;;3.47;;
12480;SDS011;6305;48.398;11.762;2023-04-25T01:43:38;5.63;;;4.00;;
12480;SDS011;6305;48.398;11.762;2023-04-25T01:46:06;6.63;;;3.90;;
12480;SDS011;6305;48.398;11.762;2023-04-25T01:48:33;8.23;;;4.32;;
12480;SDS011;6305;48.398;11.762;2023-04-25T01:51:00;6.10;;;4.10;;
12480;SDS011;6305;48.398;11.762;2023-04-25T01:53:28;5.63;;;4.30;;
12480;SDS011;6305;48.398;11.762;2023-04-25T01:55:57;4.90;;;4.18;;
12480;SDS011;6305;48.398;11.762;2023-04-25T01:58:28;6.55;;;4.55;;
12480;SDS011;6305;48.398;11.762;2023-04-25T02:01:14;7.22;;;4.40;;
12480;SDS011;6305;48.398;11.762;2023-04-25T02:03:48;5.90;;;4.05;;
12480;SDS011;6305;48.398;11.762;2023-04-25T02:06:24;8.05;;;4.22;;
12480;SDS011;6305;48.398;11.762;2023-04-25T02:08:53;6.80;;;3.97;;
12480;SDS011;6305;48.398;11.762;2023-04-25T02:11:21;5.45;;;4.07;;
12480;SDS011;6305;48.398;11.762;2023-04-25T02:14:07;7.28;;;4.10;;
12480;SDS011;6305;48.398;11.762;2023-04-25T02:16:39;5.60;;;4.28;;
12480;SDS011;6305;48.398;11.762;2023-04-25T02:19:09;7.60;;;4.70;;
12480;SDS011;6305;48.398;11.762;2023-04-25T02:21:36;6.95;;;4.57;;
12480;SDS011;6305;48.398;11.762;2023-04-25T02:24:03;7.30;;;5.07;;
12480;SDS011;6305;48.398;11.762;2023-04-25T02:26:34;7.80;;;5.22;;
12480;SDS011;6305;48.398;11.762;2023-04-25T02:29:01;9.77;;;4.85;;
12480;SDS011;6305;48.398;11.762;2023-04-25T02:31:28;9.65;;;5.05;;
12480;SDS011;6305;48.398;11.762;2023-04-25T02:33:57;7.07;;;4.72;;
12480;SDS011;6305;48.398;11.762;2023-04-25T02:36:24;7.68;;;4.70;;
12480;SDS011;6305;48.398;11.762;2023-04-25T02:38:51;6.55;;;5.13;;
12480;SDS011;6305;48.398;11.762;2023-04-25T02:41:19;5.60;;;4.47;;
12480;SDS011;6305;48.398;11.762;2023-04-25T02:43:48;6.65;;;4.97;;
12480;SDS011;6305;48.398;11.762;2023-04-25T02:46:17;8.10;;;4.82;;
12480;SDS011;6305;48.398;11.762;2023-04-25T02:48:45;7.88;;;5.00;;
12480;SDS011;6305;48.398;11.762;2023-04-25T02:51:12;6.85;;;4.93;;
12480;SDS011;6305;48.398;11.762;2023-04-25T02:53:41;7.25;;;5.32;;
12480;SDS011;6305;48.398;11.762;2023-04-25T02:56:08;9.40;;;5.78;;
12480;SDS011;6305;48.398;11.762;2023-04-25T02:58:36;7.95;;;5.00;;
12480;SDS011;6305;48.398;11.762;2023-04-25T03:01:04;7.10;;;5.30;;
12480;SDS011;6305;48.398;11.762;2023-04-25T03:03:31;9.63;;;5.60;;
12480;SDS011;6305;48.398;11.762;2023-04-25T03:05:58;7.93;;;5.28;;
12480;SDS011;6305;48.398;11.762;2023-04-25T03:08:30;7.45;;;5.15;;
12480;SDS011;6305;48.398;11.762;2023-04-25T03:10:59;7.05;;;5.53;;
12480;SDS011;6305;48.398;11.762;2023-04-25T03:13:26;8.18;;;5.30;;
12480;SDS011;6305;48.398;11.762;2023-04-25T03:15:56;8.02;;;5.05;;
12480;SDS011;6305;48.398;11.762;2023-04-25T03:18:25;9.48;;;5.57;;
12480;SDS011;6305;48.398;11.762;2023-04-25T03:20:53;9.63;;;5.43;;
12480;SDS011;6305;48.398;11.762;2023-04-25T03:23:21;6.60;;;4.80;;
12480;SDS011;6305;48.398;11.762;2023-04-25T03:25:48;7.00;;;5.22;;
12480;SDS011;6305;48.398;11.762;2023-04-25T03:28:15;7.85;;;5.28;;
12480;SDS011;6305;48.398;11.762;2023-04-25T03:30:42;7.28;;;4.65;;
12480;SDS011;6305;48.398;11.762;2023-04-25T03:33:09;8.02;;;5.20;;
12480;SDS011;6305;48.398;11.762;2023-04-25T03:35:37;7.15;;;4.65;;
12480;SDS011;6305;48.398;11.762;2023-04-25T03:38:04;6.68;;;4.90;;
12480;SDS011;6305;48.398;11.762;2023-04-25T03:40:37;7.53;;;4.60;;
12480;SDS011;6305;48.398;11.762;2023-04-25T03:43:25;7.78;;;4.80;;
12480;SDS011;6305;48.398;11.762;2023-04-25T03:46:01;6.43;;;4.63;;
12480;SDS011;6305;48.398;11.762;2023-04-25T03:48:28;5.82;;;4.38;;
12480;SDS011;6305;48.398;11.762;2023-04-25T03:50:56;8.77;;;4.65;;
12480;SDS011;6305;48.398;11.762;2023-04-25T03:53:23;7.57;;;4.82;;
12480;SDS011;6305;48.398;11.762;2023-04-25T03:56:10;8.00;;;4.68;;
12480;SDS011;6305;48.398;11.762;2023-04-25T03:58:38;6.78;;;4.72;;
12480;SDS011;6305;48.398;11.762;2023-04-25T04:01:06;8.05;;;5.10;;
12480;SDS011;6305;48.398;11.762;2023-04-25T04:03:36;6.00;;;4.45;;
12480;SDS011;6305;48.398;11.762;2023-04-25T04:06:05;7.60;;;5.00;;
12480;SDS011;6305;48.398;11.762;2023-04-25T04:08:40;7.57;;;4.43;;
12480;SDS011;6305;48.398;11.762;2023-04-25T04:11:08;6.82;;;4.82;;
12480;SDS011;6305;48.398;11.762;2023-04-25T04:13:36;6.97;;;5.07;;
12480;SDS011;6305;48.398;11.762;2023-04-25T04:16:03;8.80;;;5.50;;
12480;SDS011;6305;48.398;11.762;2023-04-25T04:18:30;7.40;;;5.07;;
12480;SDS011;6305;48.398;11.762;2023-04-25T04:20:58;6.65;;;4.80;;
12480;SDS011;6305;48.398;11.762;2023-04-25T04:23:30;7.88;;;4.32;;
12480;SDS011;6305;48.398;11.762;2023-04-25T04:25:58;10.10;;;5.38;;
12480;SDS011;6305;48.398;11.762;2023-04-25T04:28:57;7.57;;;5.03;;
12480;SDS011;6305;48.398;11.762;2023-04-25T04:31:38;7.70;;;4.85;;
12480;SDS011;6305;48.398;11.762;2023-04-25T04:34:05;7.78;;;5.22;;
12480;SDS011;6305;48.398;11.762;2023-04-25T04:36:33;6.57;;;4.25;;
12480;SDS011;6305;48.398;11.762;2023-04-25T04:39:02;8.13;;;4.75;;
12480;SDS011;6305;48.398;11.762;2023-04-25T04:41:35;8.77;;;5.03;;
12480;SDS011;6305;48.398;11.762;2023-04-25T04:44:09;7.43;;;4.43;;
12480;SDS011;6305;48.398;11.762;2023-04-25T04:46:52;7.78;;;4.65;;
12480;SDS011;6305;48.398;11.762;2023-04-25T04:49:39;5.82;;;4.40;;
12480;SDS011;6305;48.398;11.762;2023-04-25T04:52:39;5.43;;;4.40;;
12480;SDS011;6305;48.398;11.762;2023-04-25T04:55:42;5.45;;;4.22;;
12480;SDS011;6305;48.398;11.762;2023-04-25T04:58:32;6.40;;;4.30;;
12480;SDS011;6305;48.398;11.762;2023-04-25T05:01:13;5.63;;;4.28;;
12480;SDS011;6305;48.398;11.762;2023-04-25T05:03:54;5.45;;;4.00;;
12480;SDS011;6305;48.398;11.762;2023-04-25T05:06:45;8.48;;;3.78;;
12480;SDS011;6305;48.398;11.762;2023-04-25T05:09:23;6.57;;;3.63;;
12480;SDS011;6305;48.398;11.762;2023-04-25T05:12:18;4.53;;;3.67;;
12480;SDS011;6305;48.398;11.762;2023-04-25T05:14:53;6.50;;;3.33;;
12480;SDS011;6305;48.398;11.762;2023-04-25T05:17:39;5.32;;;3.00;;
12480;SDS011;6305;48.398;11.762;2023-04-25T05:20:25;5.57;;;3.20;;
12480;SDS011;6305;48.398;11.762;2023-04-25T05:22:55;3.08;;;2.78;;
12480;SDS011;6305;48.398;11.762;2023-04-25T05:25:36;3.35;;;2.53;;
12480;SDS011;6305;48.398;11.762;2023-04-25T05:28:19;4.13;;;3.03;;
12480;SDS011;6305;48.398;11.762;2023-04-25T05:31:12;6.65;;;2.60;;
12480;SDS011;6305;48.398;11.762;2023-04-25T05:34:01;3.00;;;2.33;;
12480;SDS011;6305;48.398;11.762;2023-04-25T05:36:39;3.83;;;2.20;;
12480;SDS011;6305;48.398;11.762;2023-04-25T05:39:06;5.10;;;2.70;;
12480;SDS011;6305;48.398;11.762;2023-04-25T05:41:52;4.10;;;2.40;;
12480;SDS011;6305;48.398;11.762;2023-04-25T05:44:39;5.43;;;2.42;;
12480;SDS011;6305;48.398;11.762;2023-04-25T05:47:18;4.03;;;2.53;;
12480;SDS011;6305;48.398;11.762;2023-04-25T05:50:01;3.88;;;2.35;;
12480;SDS011;6305;48.398;11.762;2023-04-25T05:52:58;4.07;;;2.75;;
12480;SDS011;6305;48.398;11.762;2023-04-25T05:55:31;4.60;;;2.60;;
12480;SDS011;6305;48.398;11.762;2023-04-25T05:58:00;4.00;;;2.55;;
12480;SDS011;6305;48.398;11.762;2023-04-25T06:00:28;3.08;;;2.42;;
12480;SDS011;6305;48.398;11.762;2023-04-25T06:02:56;5.72;;;2.60;;
12480;SDS011;6305;48.398;11.762;2023-04-25T06:05:23;3.65;;;2.35;;
12480;SDS011;6305;48.398;11.762;2023-04-25T06:07:50;2.95;;;2.25;;
12480;SDS011;6305;48.398;11.762;2023-04-25T06:10:17;3.42;;;2.30;;
12480;SDS011;6305;48.398;11.762;2023-04-25T06:12:44;4.90;;;2.40;;
12480;SDS011;6305;48.398;11.762;2023-04-25T06:15:13;4.70;;;2.45;;
12480;SDS011;6305;48.398;11.762;2023-04-25T06:17:42;2.70;;;1.95;;
12480;SDS011;6305;48.398;11.762;2023-04-25T06:20:09;3.80;;;2.10;;
12480;SDS011;6305;48.398;11.762;2023-04-25T06:22:39;2.47;;;1.85;;
12480;SDS011;6305;48.398;11.762;2023-04-25T06:25:06;3.67;;;2.30;;
12480;SDS011;6305;48.398;11.762;2023-04-25T06:27:34;4.50;;;2.40;;
12480;SDS011;6305;48.398;11.762;2023-04-25T06:30:02;2.80;;;2.20;;
12480;SDS011;6305;48.398;11.762;2023-04-25T06:32:31;3.13;;;2.20;;
12480;SDS011;6305;48.398;11.762;2023-04-25T06:35:01;3.30;;;2.50;;
12480;SDS011;6305;48.398;11.762;2023-04-25T06:37:28;5.88;;;2.58;;
12480;SDS011;6305;48.398;11.762;2023-04-25T06:39:55;3.30;;;2.10;;
12480;SDS011;6305;48.398;11.762;2023-04-25T06:42:22;3.03;;;2.13;;
12480;SDS011;6305;48.398;11.762;2023-04-25T06:44:55;3.42;;;2.47;;
12480;SDS011;6305;48.398;11.762;2023-04-25T06:47:22;4.15;;;2.70;;
12480;SDS011;6305;48.398;11.762;2023-04-25T06:49:49;4.45;;;2.75;;
12480;SDS011;6305;48.398;11.762;2023-04-25T06:52:18;3.50;;;2.70;;
12480;SDS011;6305;48.398;11.762;2023-04-25T06:54:46;3.63;;;2.70;;
12480;SDS011;6305;48.398;11.762;2023-04-25T06:57:36;8.68;;;3.15;;
12480;SDS011;6305;48.398;11.762;2023-04-25T07:00:24;8.63;;;2.83;;
12480;SDS011;6305;48.398;11.762;2023-04-25T07:02:51;5.43;;;3.13;;
12480;SDS011;6305;48.398;11.762;2023-04-25T07:05:18;5.07;;;2.92;;
12480;SDS011;6305;48.398;11.762;2023-04-25T07:07:48;3.42;;;2.40;;
12480;SDS011;6305;48.398;11.762;2023-04-25T07:10:15;3.45;;;2.88;;
12480;SDS011;6305;48.398;11.762;2023-04-25T07:12:42;4.97;;;3.00;;
12480;SDS011;6305;48.398;11.762;2023-04-25T07:15:09;2.92;;;2.65;;
12480;SDS011;6305;48.398;11.762;2023-04-25T07:17:39;5.13;;;3.30;;
12480;SDS011;6305;48.398;11.762;2023-04-25T07:20:07;7.07;;;3.75;;
12480;SDS011;6305;48.398;11.762;2023-04-25T07:22:35;5.38;;;3.97;;
12480;SDS011;6305;48.398;11.762;2023-04-25T07:25:05;5.13;;;3.70;;
12480;SDS011;6305;48.398;11.762;2023-04-25T07:27:34;8.73;;;4.15;;
12480;SDS011;6305;48.398;11.762;2023-04-25T07:30:13;5.30;;;3.55;;
12480;SDS011;6305;48.398;11.762;2023-04-25T07:32:40;5.15;;;3.50;;
12480;SDS011;6305;48.398;11.762;2023-04-25T07:35:08;6.15;;;3.00;;
12480;SDS011;6305;48.398;11.762;2023-04-25T07:37:35;3.67;;;2.72;;
12480;SDS011;6305;48.398;11.762;2023-04-25T07:40:16;2.88;;;2.53;;
12480;SDS011;6305;48.398;11.762;2023-04-25T07:42:52;3.63;;;2.95;;
12480;SDS011;6305;48.398;11.762;2023-04-25T07:45:26;5.40;;;2.40;;
12480;SDS011;6305;48.398;11.762;2023-04-25T07:47:53;3.45;;;2.60;;
12480;SDS011;6305;48.398;11.762;2023-04-25T07:50:21;3.58;;;2.47;;
12480;SDS011;6305;48.398;11.762;2023-04-25T07:52:48;4.63;;;2.30;;
12480;SDS011;6305;48.398;11.762;2023-04-25T07:55:23;3.30;;;2.30;;
12480;SDS011;6305;48.398;11.762;2023-04-25T07:57:59;3.70;;;1.90;;
12480;SDS011;6305;48.398;11.762;2023-04-25T08:00:28;4.18;;;2.08;;
12480;SDS011;6305;48.398;11.762;2023-04-25T08:03:15;3.88;;;2.20;;
12480;SDS011;6305;48.398;11.762;2023-04-25T08:05:43;3.00;;;2.10;;
12480;SDS011;6305;48.398;11.762;2023-04-25T08:08:12;2.13;;;1.75;;
12480;SDS011;6305;48.398;11.762;2023-04-25T08:10:41;2.35;;;1.80;;
12480;SDS011;6305;48.398;11.762;2023-04-25T08:13:08;2.15;;;1.70;;
12480;SDS011;6305;48.398;11.762;2023-04-25T08:15:36;2.60;;;1.98;;
12480;SDS011;6305;48.398;11.762;2023-04-25T08:18:03;2.67;;;1.92;;
12480;SDS011;6305;48.398;11.762;2023-04-25T08:20:30;2.97;;;2.15;;
12480;SDS011;6305;48.398;11.762;2023-04-25T08:22:59;2.38;;;1.80;;
12480;SDS011;6305;48.398;11.762;2023-04-25T08:25:51;3.60;;;2.30;;
12480;SDS011;6305;48.398;11.762;2023-04-25T08:28:22;2.13;;;1.70;;
12480;SDS011;6305;48.398;11.762;2023-04-25T08:30:49;4.10;;;1.80;;
12480;SDS011;6305;48.398;11.762;2023-04-25T08:33:17;2.75;;;2.10;;
12480;SDS011;6305;48.398;11.762;2023-04-25T08:35:57;3.30;;;2.47;;
12480;SDS011;6305;48.398;11.762;2023-04-25T08:38:26;2.70;;;2.10;;
12480;SDS011;6305;48.398;11.762;2023-04-25T08:40:54;2.42;;;1.90;;
12480;SDS011;6305;48.398;11.762;2023-04-25T08:43:23;5.03;;;2.22;;
12480;SDS011;6305;48.398;11.762;2023-04-25T08:45:52;3.55;;;1.92;;
12480;SDS011;6305;48.398;11.762;2023-04-25T08:48:49;2.92;;;2.05;;
12480;SDS011;6305;48.398;11.762;2023-04-25T08:51:21;2.42;;;1.80;;
12480;SDS011;6305;48.398;11.762;2023-04-25T08:53:50;3.75;;;2.20;;
12480;SDS011;6305;48.398;11.762;2023-04-25T08:56:20;3.75;;;1.80;;
12480;SDS011;6305;48.398;11.762;2023-04-25T08:58:48;3.08;;;2.20;;
12480;SDS011;6305;48.398;11.762;2023-04-25T09:01:16;3.20;;;2.03;;
12480;SDS011;6305;48.398;11.762;2023-04-25T09:03:49;2.90;;;2.30;;
12480;SDS011;6305;48.398;11.762;2023-04-25T09:06:17;5.82;;;2.28;;
12480;SDS011;6305;48.398;11.762;2023-04-25T09:08:49;2.90;;;2.03;;
12480;SDS011;6305;48.398;11.762;2023-04-25T09:11:17;3.10;;;2.30;;
12480;SDS011;6305;48.398;11.762;2023-04-25T09:13:47;3.92;;;2.13;;
12480;SDS011;6305;48.398;11.762;2023-04-25T09:16:22;3.22;;;2.20;;
12480;SDS011;6305;48.398;11.762;2023-04-25T09:19:10;3.35;;;1.90;;
12480;SDS011;6305;48.398;11.762;2023-04-25T09:21:48;2.22;;;2.00;;
12480;SDS011;6305;48.398;11.762;2023-04-25T09:24:15;3.40;;;1.90;;
12480;SDS011;6305;48.398;11.762;2023-04-25T09:26:45;3.05;;;2.00;;
12480;SDS011;6305;48.398;11.762;2023-04-25T09:29:14;3.65;;;2.28;;
12480;SDS011;6305;48.398;11.762;2023-04-25T09:31:42;4.60;;;2.20;;
12480;SDS011;6305;48.398;11.762;2023-04-25T09:34:10;4.90;;;2.30;;
12480;SDS011;6305;48.398;11.762;2023-04-25T09:36:44;2.75;;;2.30;;
12480;SDS011;6305;48.398;11.762;2023-04-25T09:39:30;3.58;;;2.30;;
12480;SDS011;6305;48.398;11.762;2023-04-25T09:42:09;2.58;;;2.00;;
12480;SDS011;6305;48.398;11.762;2023-04-25T09:44:37;4.03;;;2.20;;
12480;SDS011;6305;48.398;11.762;2023-04-25T09:47:09;3.17;;;2.17;;
12480;SDS011;6305;48.398;11.762;2023-04-25T09:49:39;5.38;;;2.17;;
12480;SDS011;6305;48.398;11.762;2023-04-25T09:52:13;3.72;;;2.00;;
12480;SDS011;6305;48.398;11.762;2023-04-25T09:55:03;4.35;;;2.38;;
12480;SDS011;6305;48.398;11.762;2023-04-25T09:57:33;4.10;;;2.00;;
12480;SDS011;6305;48.398;11.762;2023-04-25T10:00:06;2.22;;;2.03;;
12480;SDS011;6305;48.398;11.762;2023-04-25T10:02:41;2.40;;;2.00;;
12480;SDS011;6305;48.398;11.762;2023-04-25T10:05:27;3.17;;;1.90;;
12480;SDS011;6305;48.398;11.762;2023-04-25T10:07:58;3.13;;;1.80;;
12480;SDS011;6305;48.398;11.762;2023-04-25T10:10:28;2.15;;;1.83;;
12480;SDS011;6305;48.398;11.762;2023-04-25T10:13:02;4.13;;;2.00;;
12480;SDS011;6305;48.398;11.762;2023-04-25T10:15:32;1.98;;;1.60;;
12480;SDS011;6305;48.398;11.762;2023-04-25T10:18:01;2.13;;;1.77;;
12480;SDS011;6305;48.398;11.762;2023-04-25T10:20:29;3.05;;;1.70;;
12480;SDS011;6305;48.398;11.762;2023-04-25T10:22:58;3.58;;;1.55;;
12480;SDS011;6305;48.398;11.762;2023-04-25T10:25:33;2.47;;;1.52;;
12480;SDS011;6305;48.398;11.762;2023-04-25T10:28:00;1.90;;;1.80;;
12480;SDS011;6305;48.398;11.762;2023-04-25T10:30:30;2.13;;;1.70;;
12480;SDS011;6305;48.398;11.762;2023-04-25T10:32:59;2.50;;;1.75;;
12480;SDS011;6305;48.398;11.762;2023-04-25T10:35:26;2.70;;;1.90;;
12480;SDS011;6305;48.398;11.762;2023-04-25T10:38:05;1.50;;;1.38;;
12480;SDS011;6305;48.398;11.762;2023-04-25T10:40:35;2.88;;;1.90;;
12480;SDS011;6305;48.398;11.762;2023-04-25T10:46:19;1.90;;;1.70;;
12480;SDS011;6305;48.398;11.762;2023-04-25T10:48:50;2.90;;;1.80;;
12480;SDS011;6305;48.398;11.762;2023-04-25T10:51:20;2.88;;;2.20;;
12480;SDS011;6305;48.398;11.762;2023-04-25T10:53:59;3.00;;;2.53;;
12480;SDS011;6305;48.398;11.762;2023-04-25T10:56:27;3.88;;;2.38;;
12480;SDS011;6305;48.398;11.762;2023-04-25T10:59:05;4.38;;;2.85;;
12480;SDS011;6305;48.398;11.762;2023-04-25T11:01:38;2.33;;;2.13;;
12480;SDS011;6305;48.398;11.762;2023-04-25T11:04:19;2.13;;;1.60;;
12480;SDS011;6305;48.398;11.762;2023-04-25T11:06:58;2.28;;;2.05;;
12480;SDS011;6305;48.398;11.762;2023-04-25T11:09:32;5.55;;;2.80;;
12480;SDS011;6305;48.398;11.762;2023-04-25T11:11:59;3.88;;;2.50;;
12480;SDS011;6305;48.398;11.762;2023-04-25T11:14:26;2.88;;;2.60;;
12480;SDS011;6305;48.398;11.762;2023-04-25T11:16:56;3.72;;;3.20;;
12480;SDS011;6305;48.398;11.762;2023-04-25T11:19:26;5.13;;;3.15;;
12480;SDS011;6305;48.398;11.762;2023-04-25T11:21:54;4.07;;;2.58;;
12480;SDS011;6305;48.398;11.762;2023-04-25T11:24:25;3.38;;;2.08;;
12480;SDS011;6305;48.398;11.762;2023-04-25T11:26:52;2.30;;;2.10;;
12480;SDS011;6305;48.398;11.762;2023-04-25T11:29:21;3.35;;;2.28;;
12480;SDS011;6305;48.398;11.762;2023-04-25T11:31:48;3.47;;;2.60;;
12480;SDS011;6305;48.398;11.762;2023-04-25T11:34:18;4.60;;;3.08;;
12480;SDS011;6305;48.398;11.762;2023-04-25T11:36:45;3.45;;;2.67;;
12480;SDS011;6305;48.398;11.762;2023-04-25T11:39:12;4.60;;;2.65;;
12480;SDS011;6305;48.398;11.762;2023-04-25T11:41:40;3.50;;;2.67;;
12480;SDS011;6305;48.398;11.762;2023-04-25T11:44:08;3.28;;;2.97;;
12480;SDS011;6305;48.398;11.762;2023-04-25T11:46:35;5.35;;;3.00;;
12480;SDS011;6305;48.398;11.762;2023-04-25T11:49:02;3.67;;;3.03;;
12480;SDS011;6305;48.398;11.762;2023-04-25T11:51:30;3.50;;;2.97;;
12480;SDS011;6305;48.398;11.762;2023-04-25T11:54:04;2.90;;;2.58;;
12480;SDS011;6305;48.398;11.762;2023-04-25T11:56:32;3.30;;;2.88;;
12480;SDS011;6305;48.398;11.762;2023-04-25T11:58:59;3.63;;;2.40;;
12480;SDS011;6305;48.398;11.762;2023-04-25T12:01:28;4.10;;;2.80;;
12480;SDS011;6305;48.398;11.762;2023-04-25T12:03:56;2.90;;;2.35;;
12480;SDS011;6305;48.398;11.762;2023-04-25T12:06:25;3.83;;;2.13;;
12480;SDS011;6305;48.398;11.762;2023-04-25T12:09:01;4.53;;;3.05;;
12480;SDS011;6305;48.398;11.762;2023-04-25T12:11:29;3.92;;;2.88;;
12480;SDS011;6305;48.398;11.762;2023-04-25T12:14:01;6.85;;;3.60;;
12480;SDS011;6305;48.398;11.762;2023-04-25T12:16:29;5.95;;;3.83;;
12480;SDS011;6305;48.398;11.762;2023-04-25T12:18:56;5.55;;;3.65;;
12480;SDS011;6305;48.398;11.762;2023-04-25T12:21:27;5.05;;;3.72;;
12480;SDS011;6305;48.398;11.762;2023-04-25T12:23:55;8.13;;;4.47;;
12480;SDS011;6305;48.398;11.762;2023-04-25T12:26:24;5.05;;;4.00;;
12480;SDS011;6305;48.398;11.762;2023-04-25T12:28:51;6.03;;;4.60;;
12480;SDS011;6305;48.398;11.762;2023-04-25T12:31:18;5.25;;;3.90;;
12480;SDS011;6305;48.398;11.762;2023-04-25T12:33:46;4.55;;;3.55;;
12480;SDS011;6305;48.398;11.762;2023-04-25T12:36:13;4.43;;;3.53;;
12480;SDS011;6305;48.398;11.762;2023-04-25T12:38:42;4.35;;;3.55;;
12480;SDS011;6305;48.398;11.762;2023-04-25T12:41:09;4.75;;;3.40;;
12480;SDS011;6305;48.398;11.762;2023-04-25T12:43:37;3.33;;;2.90;;
12480;SDS011;6305;48.398;11.762;2023-04-25T12:46:04;3.08;;;2.35;;
12480;SDS011;6305;48.398;11.762;2023-04-25T12:48:31;2.70;;;2.40;;
12480;SDS011;6305;48.398;11.762;2023-04-25T12:50:58;3.25;;;2.25;;
12480;SDS011;6305;48.398;11.762;2023-04-25T12:53:25;3.00;;;2.40;;
12480;SDS011;6305;48.398;11.762;2023-04-25T12:55:52;2.33;;;2.08;;
12480;SDS011;6305;48.398;11.762;2023-04-25T12:58:19;2.90;;;2.28;;
12480;SDS011;6305;48.398;11.762;2023-04-25T13:00:47;2.45;;;2.13;;
12480;SDS011;6305;48.398;11.762;2023-04-25T13:03:14;5.15;;;2.28;;
12480;SDS011;6305;48.398;11.762;2023-04-25T13:05:41;2.72;;;2.35;;
12480;SDS011;6305;48.398;11.762;2023-04-25T13:08:09;2.90;;;2.05;;
12480;SDS011;6305;48.398;11.762;2023-04-25T13:10:35;2.47;;;1.67;;
12480;SDS011;6305;48.398;11.762;2023-04-25T13:13:04;1.50;;;1.40;;
12480;SDS011;6305;48.398;11.762;2023-04-25T13:15:31;1.90;;;1.58;;
12480;SDS011;6305;48.398;11.762;2023-04-25T13:18:00;2.00;;;1.70;;
12480;SDS011;6305;48.398;11.762;2023-04-25T13:20:27;2.15;;;1.40;;
12480;SDS011;6305;48.398;11.762;2023-04-25T13:22:53;1.63;;;1.52;;
12480;SDS011;6305;48.398;11.762;2023-04-25T13:25:20;2.10;;;1.70;;
12480;SDS011;6305;48.398;11.762;2023-04-25T13:27:48;1.70;;;1.55;;
12480;SDS011;6305;48.398;11.762;2023-04-25T13:30:15;1.67;;;1.40;;
12480;SDS011;6305;48.398;11.762;2023-04-25T13:32:42;1.67;;;1.58;;
12480;SDS011;6305;48.398;11.762;2023-04-25T13:35:11;1.50;;;1.40;;
12480;SDS011;6305;48.398;11.762;2023-04-25T13:37:39;2.03;;;1.55;;
12480;SDS011;6305;48.398;11.762;2023-04-25T13:40:07;1.73;;;1.60;;
12480;SDS011;6305;48.398;11.762;2023-04-25T13:42:36;2.83;;;1.80;;
12480;SDS011;6305;48.398;11.762;2023-04-25T13:45:05;2.35;;;1.58;;
12480;SDS011;6305;48.398;11.762;2023-04-25T13:47:32;1.70;;;1.60;;
12480;SDS011;6305;48.398;11.762;2023-04-25T13:50:00;2.47;;;1.77;;
12480;SDS011;6305;48.398;11.762;2023-04-25T13:52:31;2.00;;;1.70;;
12480;SDS011;6305;48.398;11.762;2023-04-25T13:54:58;1.85;;;1.40;;
12480;SDS011;6305;48.398;11.762;2023-04-25T13:57:25;1.73;;;1.40;;
12480;SDS011;6305;48.398;11.762;2023-04-25T13:59:52;1.58;;;1.38;;
12480;SDS011;6305;48.398;11.762;2023-04-25T14:02:19;1.38;;;1.27;;
12480;SDS011;6305;48.398;11.762;2023-04-25T14:04:46;2.05;;;1.80;;
12480;SDS011;6305;48.398;11.762;2023-04-25T14:07:13;1.30;;;1.13;;
12480;SDS011;6305;48.398;11.762;2023-04-25T14:09:43;1.50;;;1.40;;
12480;SDS011;6305;48.398;11.762;2023-04-25T14:12:10;1.50;;;1.40;;
12480;SDS011;6305;48.398;11.762;2023-04-25T14:14:37;1.45;;;1.35;;
12480;SDS011;6305;48.398;11.762;2023-04-25T14:17:04;1.70;;;1.60;;
12480;SDS011;6305;48.398;11.762;2023-04-25T14:19:32;2.78;;;1.50;;
12480;SDS011;6305;48.398;11.762;2023-04-25T14:21:59;1.67;;;1.38;;
12480;SDS011;6305;48.398;11.762;2023-04-25T14:24:26;2.33;;;1.77;;
12480;SDS011;6305;48.398;11.762;2023-04-25T14:26:54;2.10;;;1.58;;
12480;SDS011;6305;48.398;11.762;2023-04-25T14:29:22;1.77;;;1.42;;
12480;SDS011;6305;48.398;11.762;2023-04-25T14:31:49;1.95;;;1.60;;
12480;SDS011;6305;48.398;11.762;2023-04-25T14:34:16;2.97;;;1.83;;
12480;SDS011;6305;48.398;11.762;2023-04-25T14:36:43;1.70;;;1.48;;
12480;SDS011;6305;48.398;11.762;2023-04-25T14:39:12;1.50;;;1.40;;
12480;SDS011;6305;48.398;11.762;2023-04-25T14:41:40;2.53;;;1.75;;
12480;SDS011;6305;48.398;11.762;2023-04-25T14:44:08;2.15;;;1.80;;
12480;SDS011;6305;48.398;11.762;2023-04-25T14:46:35;2.80;;;1.95;;
12480;SDS011;6305;48.398;11.762;2023-04-25T14:49:02;2.92;;;1.98;;
12480;SDS011;6305;48.398;11.762;2023-04-25T14:51:30;3.33;;;2.08;;
12480;SDS011;6305;48.398;11.762;2023-04-25T14:53:57;4.18;;;2.20;;
12480;SDS011;6305;48.398;11.762;2023-04-25T14:56:24;2.95;;;2.13;;
12480;SDS011;6305;48.398;11.762;2023-04-25T14:58:51;2.58;;;2.38;;
12480;SDS011;6305;48.398;11.762;2023-04-25T15:01:20;3.50;;;2.35;;
12480;SDS011;6305;48.398;11.762;2023-04-25T15:03:47;2.40;;;2.20;;
12480;SDS011;6305;48.398;11.762;2023-04-25T15:06:14;3.00;;;2.53;;
12480;SDS011;6305;48.398;11.762;2023-04-25T15:08:41;2.83;;;2.35;;
12480;SDS011;6305;48.398;11.762;2023-04-25T15:11:08;3.25;;;2.35;;